Time;durP1;ratioP1;P1;durP2;ratioP2;P2;SDS_P1;SDS_P2;PMS_P1;PMS_P2;Temp;Humidity;BMP_temperature;BMP_pressure;BME280_temperature;BME280_humidity;BME280_pressure;Samples;Min_cycle;Max_cycle;Signal;HPM_P1;HPM_P2
2022/07/05 00:00:32;;;;;;;1.10;1.10;;;;;;;;;;5055498;28;20080;-92
2022/07/05 00:03:00;;;;;;;1.33;1.10;;;;;;;;;;5055089;28;20049;-92
2022/07/05 00:05:27;;;;;;;2.80;1.55;;;;;;;;;;5054327;28;20505;-91
2022/07/05 00:07:54;;;;;;;1.33;1.23;;;;;;;;;;5054423;28;20045;-91
2022/07/05 00:10:22;;;;;;;1.10;1.10;;;;;;;;;;5054670;28;20060;-91
2022/07/05 00:12:49;;;;;;;2.20;1.92;;;;;;;;;;5054251;28;20136;-92
2022/07/05 00:15:17;;;;;;;1.77;1.20;;;;;;;;;;5054542;28;20096;-91
2022/07/05 00:17:44;;;;;;;2.45;1.35;;;;;;;;;;5054541;28;20719;-91
2022/07/05 00:20:11;;;;;;;1.13;1.13;;;;;;;;;;5053580;28;20080;-91
2022/07/05 00:22:38;;;;;;;5.05;1.55;;;;;;;;;;5053910;28;20472;-91
2022/07/05 00:25:06;;;;;;;2.15;1.58;;;;;;;;;;5055149;28;20085;-91
2022/07/05 00:27:33;;;;;;;4.30;1.60;;;;;;;;;;5054265;28;20084;-91
2022/07/05 00:30:00;;;;;;;1.35;1.25;;;;;;;;;;5054223;28;20121;-91
2022/07/05 00:32:27;;;;;;;4.43;1.70;;;;;;;;;;5054173;28;20147;-90
2022/07/05 00:34:54;;;;;;;1.63;1.25;;;;;;;;;;5053639;28;20080;-91
2022/07/05 00:37:21;;;;;;;5.45;1.60;;;;;;;;;;5053884;28;20096;-90
2022/07/05 00:39:48;;;;;;;2.20;1.40;;;;;;;;;;5054501;28;20080;-91
2022/07/05 00:42:16;;;;;;;2.33;1.80;;;;;;;;;;5054621;28;20075;-92
2022/07/05 00:44:43;;;;;;;1.65;1.33;;;;;;;;;;5053749;28;20140;-91
2022/07/05 00:47:11;;;;;;;1.65;1.52;;;;;;;;;;5054175;28;20089;-91
2022/07/05 00:49:38;;;;;;;2.10;1.55;;;;;;;;;;5053783;28;20474;-91
2022/07/05 00:52:06;;;;;;;1.88;1.58;;;;;;;;;;5054001;28;20077;-91
2022/07/05 00:54:49;;;;;;;5.00;1.40;;;;;;;;;;5053903;28;20079;-91
2022/07/05 00:57:16;;;;;;;2.97;1.48;;;;;;;;;;5053739;28;20092;-90
2022/07/05 00:59:44;;;;;;;2.88;1.50;;;;;;;;;;5053455;28;20088;-91
2022/07/05 01:02:11;;;;;;;2.15;1.80;;;;;;;;;;5053283;28;20147;-91
2022/07/05 01:04:44;;;;;;;2.25;1.80;;;;;;;;;;5054556;28;20103;-90
2022/07/05 01:07:12;;;;;;;2.10;1.42;;;;;;;;;;5053544;28;20052;-90
2022/07/05 01:09:39;;;;;;;1.60;1.50;;;;;;;;;;5053260;28;20095;-90
2022/07/05 01:12:08;;;;;;;1.70;1.60;;;;;;;;;;5054013;28;20045;-91
2022/07/05 01:14:35;;;;;;;4.47;1.77;;;;;;;;;;5054209;28;20409;-90
2022/07/05 01:17:03;;;;;;;4.05;1.67;;;;;;;;;;5053551;28;20501;-91
2022/07/05 01:19:31;;;;;;;3.45;1.80;;;;;;;;;;5053017;28;20049;-90
2022/07/05 01:22:03;;;;;;;2.05;1.50;;;;;;;;;;5054204;28;20107;-91
2022/07/05 01:24:30;;;;;;;1.60;1.48;;;;;;;;;;5052888;28;20107;-92
2022/07/05 01:26:58;;;;;;;3.58;1.88;;;;;;;;;;5052644;28;20045;-91
2022/07/05 01:29:25;;;;;;;1.90;1.80;;;;;;;;;;5053061;28;20111;-91
2022/07/05 01:31:53;;;;;;;2.05;1.95;;;;;;;;;;5054018;28;20048;-91
2022/07/05 01:34:20;;;;;;;3.60;1.90;;;;;;;;;;5053069;28;20080;-91
2022/07/05 01:36:48;;;;;;;1.67;1.67;;;;;;;;;;5052796;28;20083;-91
2022/07/05 01:39:16;;;;;;;1.90;1.80;;;;;;;;;;5053098;28;20071;-91
2022/07/05 01:41:43;;;;;;;2.03;1.92;;;;;;;;;;5052462;28;20053;-91
2022/07/05 01:44:12;;;;;;;6.28;2.05;;;;;;;;;;5052896;28;20077;-91
2022/07/05 01:46:40;;;;;;;3.33;2.30;;;;;;;;;;5052691;28;20079;-91
2022/07/05 01:49:09;;;;;;;1.77;1.63;;;;;;;;;;5053102;28;20080;-91
2022/07/05 01:51:48;;;;;;;1.50;1.40;;;;;;;;;;5052628;28;20107;-90
2022/07/05 01:54:15;;;;;;;1.80;1.70;;;;;;;;;;5052276;28;20056;-90
2022/07/05 01:56:42;;;;;;;2.03;1.92;;;;;;;;;;5052444;28;20413;-90
2022/07/05 01:59:10;;;;;;;2.38;2.13;;;;;;;;;;5052227;28;20135;-89
2022/07/05 02:01:38;;;;;;;4.25;2.30;;;;;;;;;;5052556;28;20072;-91
2022/07/05 02:04:07;;;;;;;1.70;1.60;;;;;;;;;;5052381;28;20115;-91
2022/07/05 02:06:34;;;;;;;3.47;1.88;;;;;;;;;;5060397;28;20477;-90
2022/07/05 02:09:03;;;;;;;2.60;2.17;;;;;;;;;;5053856;28;20084;-90
2022/07/05 02:11:31;;;;;;;2.30;2.08;;;;;;;;;;5052092;28;20089;-90
2022/07/05 02:13:58;;;;;;;1.65;1.60;;;;;;;;;;5053272;28;20358;-90
2022/07/05 02:16:26;;;;;;;2.47;1.95;;;;;;;;;;5052435;28;20556;-91
2022/07/05 02:18:53;;;;;;;2.10;1.88;;;;;;;;;;5053122;28;20049;-90
2022/07/05 02:21:21;;;;;;;4.35;2.15;;;;;;;;;;5052044;28;20049;-90
2022/07/05 02:23:48;;;;;;;3.42;2.40;;;;;;;;;;5053196;28;20096;-90
2022/07/05 02:26:15;;;;;;;2.03;1.92;;;;;;;;;;5051955;28;20041;-90
2022/07/05 02:28:43;;;;;;;2.05;1.90;;;;;;;;;;5051957;28;20073;-91
2022/07/05 02:31:10;;;;;;;2.25;2.05;;;;;;;;;;5035715;28;20472;-90
2022/07/05 02:33:37;;;;;;;2.75;1.90;;;;;;;;;;5051904;28;20135;-90
2022/07/05 02:36:09;;;;;;;3.00;2.42;;;;;;;;;;5051989;28;20096;-89
2022/07/05 02:38:36;;;;;;;1.92;1.83;;;;;;;;;;5051535;28;20099;-90
2022/07/05 02:41:07;;;;;;;2.28;2.08;;;;;;;;;;5052002;28;20049;-91
2022/07/05 02:43:34;;;;;;;2.53;2.03;;;;;;;;;;5052656;28;20080;-90
2022/07/05 02:46:02;;;;;;;2.08;1.90;;;;;;;;;;5055966;28;20099;-91
2022/07/05 02:48:29;;;;;;;2.22;2.03;;;;;;;;;;5056717;28;20095;-90
2022/07/05 02:50:57;;;;;;;5.28;2.13;;;;;;;;;;5056909;28;20099;-90
2022/07/05 02:53:24;;;;;;;2.55;2.38;;;;;;;;;;5055632;28;20045;-91
2022/07/05 02:55:51;;;;;;;2.40;2.30;;;;;;;;;;5055712;28;20053;-90
2022/07/05 02:58:18;;;;;;;16.02;2.63;;;;;;;;;;5055620;28;20045;-90
2022/07/05 03:00:48;;;;;;;3.85;2.40;;;;;;;;;;5055702;28;20224;-90
2022/07/05 03:03:16;;;;;;;2.88;2.60;;;;;;;;;;5055780;28;20045;-91
2022/07/05 03:05:43;;;;;;;2.90;2.70;;;;;;;;;;5055973;28;20175;-91
2022/07/05 03:08:10;;;;;;;2.80;2.60;;;;;;;;;;5055927;28;20144;-90
2022/07/05 03:10:38;;;;;;;4.05;2.63;;;;;;;;;;5056401;28;20056;-90
2022/07/05 03:13:06;;;;;;;3.22;3.03;;;;;;;;;;5056233;28;20049;-91
2022/07/05 03:15:33;;;;;;;2.95;2.58;;;;;;;;;;5055306;28;20045;-90
2022/07/05 03:18:01;;;;;;;3.85;2.92;;;;;;;;;;5055829;28;20128;-91
2022/07/05 03:20:28;;;;;;;4.22;2.88;;;;;;;;;;5055590;28;20051;-90
2022/07/05 03:22:56;;;;;;;3.80;3.00;;;;;;;;;;5056701;28;20049;-90
2022/07/05 03:25:23;;;;;;;2.92;2.70;;;;;;;;;;5055065;28;20053;-90
2022/07/05 03:27:50;;;;;;;3.90;2.85;;;;;;;;;;5055153;28;20056;-89
2022/07/05 03:30:18;;;;;;;2.95;2.80;;;;;;;;;;5055590;28;20482;-90
2022/07/05 03:32:45;;;;;;;3.63;3.03;;;;;;;;;;5055290;28;20053;-90
2022/07/05 03:35:12;;;;;;;3.53;3.22;;;;;;;;;;5055369;28;20060;-90
2022/07/05 03:37:39;;;;;;;2.97;2.78;;;;;;;;;;5054956;28;20055;-91
2022/07/05 03:40:07;;;;;;;2.90;2.63;;;;;;;;;;5054437;28;20053;-90
2022/07/05 03:42:35;;;;;;;3.25;3.05;;;;;;;;;;5054913;28;20068;-91
2022/07/05 03:45:03;;;;;;;3.05;2.85;;;;;;;;;;5054887;28;20056;-91
2022/07/05 03:47:30;;;;;;;3.03;2.80;;;;;;;;;;5055018;28;20045;-90
2022/07/05 03:49:58;;;;;;;3.78;3.00;;;;;;;;;;5055020;28;20100;-90
2022/07/05 03:52:25;;;;;;;3.08;2.88;;;;;;;;;;5054616;28;20052;-90
2022/07/05 03:54:53;;;;;;;5.22;3.40;;;;;;;;;;5054009;28;20049;-91
2022/07/05 03:57:20;;;;;;;5.50;5.00;;;;;;;;;;5055038;28;20049;-89
2022/07/05 03:59:48;;;;;;;12.23;9.48;;;;;;;;;;5055304;28;20049;-89
2022/07/05 04:02:15;;;;;;;11.48;8.85;;;;;;;;;;5054841;28;20512;-91
2022/07/05 04:04:42;;;;;;;8.43;6.30;;;;;;;;;;5055051;28;20049;-92
2022/07/05 04:07:10;;;;;;;8.20;4.72;;;;;;;;;;5054388;28;20453;-90
2022/07/05 04:09:37;;;;;;;6.03;4.03;;;;;;;;;;5054309;28;20052;-90
2022/07/05 04:12:05;;;;;;;4.65;4.25;;;;;;;;;;5055245;28;20053;-90
2022/07/05 04:14:33;;;;;;;8.88;4.55;;;;;;;;;;5055182;28;20478;-90
2022/07/05 04:17:01;;;;;;;4.10;3.80;;;;;;;;;;5054272;28;20071;-90
2022/07/05 04:19:28;;;;;;;3.65;3.35;;;;;;;;;;5054588;28;20080;-90
2022/07/05 04:21:55;;;;;;;2.80;2.70;;;;;;;;;;5054317;28;20075;-90
2022/07/05 04:24:23;;;;;;;2.97;2.88;;;;;;;;;;5055473;28;20049;-90
2022/07/05 04:26:50;;;;;;;3.17;2.63;;;;;;;;;;5058267;28;20053;-91
2022/07/05 04:29:18;;;;;;;5.68;2.50;;;;;;;;;;5062396;28;20048;-91
2022/07/05 04:31:45;;;;;;;2.20;2.10;;;;;;;;;;5054177;28;20045;-91
2022/07/05 04:34:13;;;;;;;2.15;2.05;;;;;;;;;;5053924;28;20135;-91
2022/07/05 04:36:40;;;;;;;2.50;2.40;;;;;;;;;;5053672;28;20049;-90
2022/07/05 04:39:08;;;;;;;2.42;2.33;;;;;;;;;;5053460;28;20099;-92
2022/07/05 04:41:35;;;;;;;2.72;2.30;;;;;;;;;;5054730;28;20508;-91
2022/07/05 04:44:02;;;;;;;2.72;2.53;;;;;;;;;;5053859;28;20045;-91
2022/07/05 04:46:29;;;;;;;2.50;2.28;;;;;;;;;;5053923;28;20068;-91
2022/07/05 04:48:57;;;;;;;2.42;2.28;;;;;;;;;;5053506;28;20057;-90
2022/07/05 04:51:24;;;;;;;3.40;2.40;;;;;;;;;;5053646;28;20088;-89
2022/07/05 04:53:51;;;;;;;2.42;2.33;;;;;;;;;;5054442;28;20045;-90
2022/07/05 04:56:19;;;;;;;3.17;1.85;;;;;;;;;;5053710;28;20072;-91
2022/07/05 04:58:46;;;;;;;3.85;2.10;;;;;;;;;;5053668;28;20081;-90
2022/07/05 05:01:13;;;;;;;1.90;1.80;;;;;;;;;;5054459;28;20076;-90
2022/07/05 05:03:40;;;;;;;1.70;1.60;;;;;;;;;;5054276;28;20065;-88
2022/07/05 05:06:07;;;;;;;2.42;1.95;;;;;;;;;;5053354;28;20136;-91
2022/07/05 05:08:35;;;;;;;1.67;1.58;;;;;;;;;;5052939;28;20045;-90
2022/07/05 05:11:02;;;;;;;2.20;1.80;;;;;;;;;;5053186;28;20052;-90
2022/07/05 05:13:29;;;;;;;4.13;1.70;;;;;;;;;;5053236;28;20119;-91
2022/07/05 05:15:56;;;;;;;6.47;1.90;;;;;;;;;;5052882;28;20500;-90
2022/07/05 05:18:27;;;;;;;3.92;1.50;;;;;;;;;;5053201;28;20052;-90
2022/07/05 05:20:54;;;;;;;2.15;1.40;;;;;;;;;;5053205;28;20049;-90
2022/07/05 05:23:22;;;;;;;11.05;1.60;;;;;;;;;;5054128;28;20083;-91
2022/07/05 05:25:50;;;;;;;6.93;1.65;;;;;;;;;;5053001;28;20057;-91
2022/07/05 05:28:17;;;;;;;9.55;1.40;;;;;;;;;;5053947;28;20179;-92
2022/07/05 05:30:44;;;;;;;9.40;1.90;;;;;;;;;;5053767;28;20109;-91
2022/07/05 05:33:11;;;;;;;10.77;2.20;;;;;;;;;;5053006;28;20115;-90
2022/07/05 05:35:38;;;;;;;3.63;1.30;;;;;;;;;;5053603;28;20524;-93
2022/07/05 05:38:05;;;;;;;0.80;0.80;;;;;;;;;;5053837;28;20084;-91
2022/07/05 05:40:33;;;;;;;3.95;1.10;;;;;;;;;;5053375;28;20267;-92
2022/07/05 05:43:00;;;;;;;6.93;1.48;;;;;;;;;;5052581;28;20088;-92
2022/07/05 05:45:27;;;;;;;7.65;1.40;;;;;;;;;;5052655;28;20136;-91
2022/07/05 05:47:56;;;;;;;9.65;1.48;;;;;;;;;;5053897;28;20080;-91
2022/07/05 05:50:26;;;;;;;18.98;2.08;;;;;;;;;;5053430;28;20083;-91
2022/07/05 05:52:53;;;;;;;12.77;1.85;;;;;;;;;;5053689;28;20041;-92
2022/07/05 05:55:21;;;;;;;13.95;1.70;;;;;;;;;;5051076;28;20048;-90
2022/07/05 05:57:48;;;;;;;18.40;2.70;;;;;;;;;;5053430;28;20071;-91
2022/07/05 06:00:16;;;;;;;21.77;2.88;;;;;;;;;;5052407;28;20080;-90
2022/07/05 06:02:44;;;;;;;11.57;2.17;;;;;;;;;;5053354;28;20083;-90
2022/07/05 06:05:11;;;;;;;11.15;2.05;;;;;;;;;;5053160;28;20152;-93
2022/07/05 06:07:46;;;;;;;11.90;1.90;;;;;;;;;;5053227;28;20059;-92
2022/07/05 06:10:21;;;;;;;19.38;2.28;;;;;;;;;;5053290;28;20156;-91
2022/07/05 06:12:49;;;;;;;8.98;2.00;;;;;;;;;;5052218;28;20496;-90
2022/07/05 06:15:16;;;;;;;8.50;1.77;;;;;;;;;;5052885;28;20445;-93
2022/07/05 06:17:43;;;;;;;15.18;1.90;;;;;;;;;;5052271;28;20084;-92
2022/07/05 06:20:12;;;;;;;6.47;1.50;;;;;;;;;;5052966;28;20092;-92
2022/07/05 06:22:39;;;;;;;8.93;1.92;;;;;;;;;;5052361;28;20501;-92
2022/07/05 06:25:07;;;;;;;10.75;2.45;;;;;;;;;;5053143;28;20045;-93
2022/07/05 06:27:50;;;;;;;10.98;1.90;;;;;;;;;;5052237;28;20055;-89
2022/07/05 06:30:19;;;;;;;5.97;1.63;;;;;;;;;;5052163;28;20068;-92
2022/07/05 06:32:47;;;;;;;9.43;1.52;;;;;;;;;;5053286;28;20057;-90
2022/07/05 06:35:14;;;;;;;7.15;1.42;;;;;;;;;;5052308;28;20072;-90
2022/07/05 06:37:45;;;;;;;6.13;1.40;;;;;;;;;;5051919;28;20056;-90
2022/07/05 06:40:13;;;;;;;3.45;1.15;;;;;;;;;;5051214;28;20140;-91
2022/07/05 06:42:44;;;;;;;6.82;1.30;;;;;;;;;;5051851;28;20045;-95
2022/07/05 06:45:11;;;;;;;3.67;0.82;;;;;;;;;;5052178;28;20048;-91
2022/07/05 06:47:39;;;;;;;2.30;0.70;;;;;;;;;;5052968;28;20087;-91
2022/07/05 06:50:06;;;;;;;2.83;0.65;;;;;;;;;;5053009;28;20084;-89
2022/07/05 06:52:34;;;;;;;2.45;0.45;;;;;;;;;;5055264;28;20103;-87
2022/07/05 06:55:01;;;;;;;2.47;0.60;;;;;;;;;;5051631;28;20088;-88
2022/07/05 06:57:29;;;;;;;4.10;0.70;;;;;;;;;;5053686;28;20470;-92
2022/07/05 06:59:57;;;;;;;4.03;0.60;;;;;;;;;;5053241;28;20132;-93
2022/07/05 07:02:26;;;;;;;0.40;0.40;;;;;;;;;;5052901;28;20052;-89
2022/07/05 07:04:53;;;;;;;0.55;0.50;;;;;;;;;;5051610;28;20056;-89
2022/07/05 07:10:25;;;;;;;4.00;0.88;;;;;;;;;;5052708;28;20053;-88
2022/07/05 07:12:56;;;;;;;0.55;0.55;;;;;;;;;;5051994;28;20053;-92
2022/07/05 07:15:23;;;;;;;1.52;0.60;;;;;;;;;;5051266;28;20536;-88
2022/07/05 07:17:50;;;;;;;2.38;0.50;;;;;;;;;;5051633;28;20404;-89
2022/07/05 07:20:17;;;;;;;2.53;0.82;;;;;;;;;;5051718;28;20127;-90
2022/07/05 07:22:45;;;;;;;3.03;0.43;;;;;;;;;;5051593;28;20478;-91
2022/07/05 07:25:12;;;;;;;4.20;0.88;;;;;;;;;;5052527;28;20085;-90
2022/07/05 07:27:46;;;;;;;1.55;0.70;;;;;;;;;;5051737;28;20406;-90
2022/07/05 07:30:14;;;;;;;2.92;0.50;;;;;;;;;;5053599;28;20049;-91
2022/07/05 07:32:41;;;;;;;1.17;0.40;;;;;;;;;;5056679;28;20458;-96
2022/07/05 07:35:09;;;;;;;1.33;0.70;;;;;;;;;;5056193;28;20478;-93
2022/07/05 07:37:37;;;;;;;4.53;0.65;;;;;;;;;;5054981;28;20085;-91
2022/07/05 07:40:04;;;;;;;1.08;0.60;;;;;;;;;;5054925;28;20080;-95
2022/07/05 07:42:32;;;;;;;3.50;0.95;;;;;;;;;;5054652;28;20076;-89
2022/07/05 07:45:03;;;;;;;4.00;0.63;;;;;;;;;;5054659;28;20089;-92
2022/07/05 07:47:34;;;;;;;4.43;0.63;;;;;;;;;;5055080;28;20401;-87
2022/07/05 07:50:02;;;;;;;4.80;0.65;;;;;;;;;;5055896;28;20099;-92
2022/07/05 07:52:30;;;;;;;3.30;0.80;;;;;;;;;;5054487;28;20122;-89
2022/07/05 07:54:58;;;;;;;1.48;0.73;;;;;;;;;;5054430;28;20412;-90
2022/07/05 07:57:25;;;;;;;3.00;0.75;;;;;;;;;;5055489;28;20084;-90
2022/07/05 07:59:52;;;;;;;2.80;0.73;;;;;;;;;;5054508;28;20127;-88
2022/07/05 08:02:22;;;;;;;2.83;0.98;;;;;;;;;;5054230;28;20053;-90
2022/07/05 08:04:50;;;;;;;9.82;1.15;;;;;;;;;;5055531;28;20079;-89
2022/07/05 08:07:18;;;;;;;1.85;0.60;;;;;;;;;;5055490;28;20523;-90
2022/07/05 08:09:45;;;;;;;2.33;0.55;;;;;;;;;;5054150;28;20509;-89
2022/07/05 08:12:13;;;;;;;6.03;0.82;;;;;;;;;;5054427;28;20078;-86
2022/07/05 08:14:40;;;;;;;0.45;0.45;;;;;;;;;;5055053;28;20049;-91
2022/07/05 08:17:08;;;;;;;8.23;1.98;;;;;;;;;;5055203;28;20379;-88
2022/07/05 08:22:21;;;;;;;3.17;0.60;;;;;;;;;;5054714;28;20131;-89
2022/07/05 08:24:49;;;;;;;1.20;0.32;;;;;;;;;;5053875;28;20459;-88
2022/07/05 08:27:16;;;;;;;4.72;0.98;;;;;;;;;;5055043;28;20465;-90
2022/07/05 08:29:44;;;;;;;1.58;0.40;;;;;;;;;;5053986;28;20087;-87
2022/07/05 08:32:11;;;;;;;2.50;0.50;;;;;;;;;;5054075;28;20049;-89
2022/07/05 08:34:39;;;;;;;1.00;0.50;;;;;;;;;;5053513;28;20120;-88
2022/07/05 08:37:06;;;;;;;2.42;0.40;;;;;;;;;;5054654;28;20087;-91
2022/07/05 08:39:41;;;;;;;9.68;0.90;;;;;;;;;;5037794;28;20480;-90
2022/07/05 08:42:10;;;;;;;10.80;0.90;;;;;;;;;;5053189;28;20072;-87
2022/07/05 08:44:38;;;;;;;8.65;0.85;;;;;;;;;;5053591;28;20045;-87
2022/07/05 08:47:08;;;;;;;1.40;0.50;;;;;;;;;;5053433;28;20049;-90
2022/07/05 08:49:37;;;;;;;1.98;0.30;;;;;;;;;;5053462;28;20072;-89
2022/07/05 08:52:05;;;;;;;2.42;0.40;;;;;;;;;;5053833;28;20140;-89
2022/07/05 08:54:32;;;;;;;3.30;0.60;;;;;;;;;;5053781;28;20092;-90
2022/07/05 08:57:00;;;;;;;4.35;0.80;;;;;;;;;;5053715;28;20110;-92
2022/07/05 08:59:43;;;;;;;10.43;1.40;;;;;;;;;;5053623;28;20504;-88
2022/07/05 09:02:13;;;;;;;1.83;0.93;;;;;;;;;;5053306;28;20049;-89
2022/07/05 09:04:42;;;;;;;1.20;0.40;;;;;;;;;;5053251;28;20049;-91
2022/07/05 09:07:10;;;;;;;1.48;0.52;;;;;;;;;;5053351;28;20052;-89
2022/07/05 09:09:42;;;;;;;0.35;0.28;;;;;;;;;;5053341;28;20049;-92
2022/07/05 09:12:12;;;;;;;1.27;0.40;;;;;;;;;;5054626;28;20095;-91
2022/07/05 09:14:50;;;;;;;1.40;0.47;;;;;;;;;;5060454;28;20440;-91
2022/07/05 09:17:17;;;;;;;1.35;0.50;;;;;;;;;;5037176;28;20056;-92
2022/07/05 09:19:51;;;;;;;0.38;0.28;;;;;;;;;;5053309;28;20076;-91
2022/07/05 09:22:18;;;;;;;;;;;;;;;;;;5053828;28;20064;-89
2022/07/05 09:24:45;;;;;;;2.08;0.50;;;;;;;;;;5052939;28;19921;-95
2022/07/05 09:27:14;;;;;;;1.10;0.43;;;;;;;;;;5053670;28;20091;-89
2022/07/05 09:29:57;;;;;;;1.55;0.40;;;;;;;;;;5052941;28;20131;-88
2022/07/05 09:32:32;;;;;;;2.38;0.65;;;;;;;;;;5052848;28;20045;-87
2022/07/05 09:35:18;;;;;;;1.85;0.40;;;;;;;;;;5052567;28;20068;-89
2022/07/05 09:37:45;;;;;;;0.35;0.35;;;;;;;;;;5052951;28;20065;-91
2022/07/05 09:40:12;;;;;;;4.93;0.52;;;;;;;;;;5052394;28;20460;-89
2022/07/05 09:42:47;;;;;;;1.10;0.40;;;;;;;;;;5037255;28;20044;-87
2022/07/05 09:45:25;;;;;;;0.50;0.30;;;;;;;;;;5052896;28;20148;-90
2022/07/05 09:47:55;;;;;;;3.70;0.63;;;;;;;;;;5052448;28;20052;-87
2022/07/05 09:50:43;;;;;;;4.07;0.73;;;;;;;;;;5052527;28;20049;-86
2022/07/05 09:53:44;;;;;;;1.13;0.30;;;;;;;;;;5051571;28;20420;-90
2022/07/05 09:56:12;;;;;;;0.85;0.40;;;;;;;;;;5052576;28;20053;-88
2022/07/05 09:58:39;;;;;;;1.75;0.30;;;;;;;;;;5052797;28;20132;-92
2022/07/05 10:01:24;;;;;;;0.40;0.40;;;;;;;;;;5052950;28;20095;-90
2022/07/05 10:03:54;;;;;;;1.63;0.40;;;;;;;;;;5052453;28;20057;-88
2022/07/05 10:06:29;;;;;;;0.55;0.45;;;;;;;;;;5052043;28;20041;-86
2022/07/05 10:08:56;;;;;;;1.80;0.43;;;;;;;;;;5053386;28;20402;-90
2022/07/05 10:11:24;;;;;;;2.78;0.40;;;;;;;;;;5052626;28;20041;-88
2022/07/05 10:13:56;;;;;;;1.30;0.50;;;;;;;;;;5052745;28;20056;-88
2022/07/05 10:16:23;;;;;;;0.60;0.50;;;;;;;;;;5055633;28;20327;-93
2022/07/05 10:18:51;;;;;;;1.55;0.50;;;;;;;;;;5058388;28;20076;-96
2022/07/05 10:21:19;;;;;;;0.95;0.60;;;;;;;;;;5061912;28;20055;-95
2022/07/05 10:23:55;;;;;;;5.18;0.47;;;;;;;;;;5057651;28;20489;-94
2022/07/05 10:26:36;;;;;;;1.38;0.50;;;;;;;;;;5061493;28;20052;-96
2022/07/05 10:29:05;;;;;;;2.15;0.38;;;;;;;;;;5055801;28;20537;-96
2022/07/05 10:31:32;;;;;;;1.13;0.40;;;;;;;;;;5064462;28;20552;-95
2022/07/05 10:34:07;;;;;;;0.50;0.30;;;;;;;;;;5058493;28;20044;-95
2022/07/05 10:36:54;;;;;;;2.17;0.45;;;;;;;;;;5057160;28;20049;-91
2022/07/05 10:39:25;;;;;;;1.75;0.40;;;;;;;;;;5053433;28;20072;-93
2022/07/05 10:41:55;;;;;;;0.22;0.22;;;;;;;;;;5061214;28;20503;-94
2022/07/05 10:44:26;;;;;;;1.52;0.30;;;;;;;;;;5057628;28;20059;-94
2022/07/05 10:47:18;;;;;;;1.55;0.47;;;;;;;;;;5058077;28;20416;-96
2022/07/05 10:50:00;;;;;;;0.35;0.30;;;;;;;;;;5060172;28;20481;-95
2022/07/05 10:52:28;;;;;;;1.13;0.35;;;;;;;;;;5055536;28;20052;-91
2022/07/05 10:55:14;;;;;;;2.05;0.30;;;;;;;;;;5054459;28;20084;-92
2022/07/05 10:57:41;;;;;;;2.25;0.40;;;;;;;;;;5054308;28;20045;-94
2022/07/05 11:00:10;;;;;;;0.63;0.38;;;;;;;;;;5055523;28;20107;-94
2022/07/05 11:02:57;;;;;;;0.85;0.50;;;;;;;;;;5053977;28;20513;-94
2022/07/05 11:05:25;;;;;;;1.20;0.40;;;;;;;;;;5040707;28;20072;-95
2022/07/05 11:07:59;;;;;;;0.95;0.50;;;;;;;;;;5057238;28;20072;-96
2022/07/05 11:10:26;;;;;;;3.50;0.50;;;;;;;;;;5059564;28;20096;-91
2022/07/05 11:12:53;;;;;;;1.52;0.52;;;;;;;;;;5041012;28;20079;-94
2022/07/05 11:15:20;;;;;;;1.85;0.60;;;;;;;;;;5056509;28;20049;-94
2022/07/05 11:17:48;;;;;;;3.97;0.52;;;;;;;;;;5058047;28;20442;-94
2022/07/05 11:20:33;;;;;;;4.88;0.50;;;;;;;;;;5057679;28;20412;-93
2022/07/05 11:23:03;;;;;;;0.40;0.30;;;;;;;;;;5056653;28;20080;-91
2022/07/05 11:25:32;;;;;;;1.17;0.43;;;;;;;;;;5056180;28;20056;-94
2022/07/05 11:28:06;;;;;;;2.38;0.50;;;;;;;;;;5057503;28;20068;-93
2022/07/05 11:30:50;;;;;;;1.48;0.38;;;;;;;;;;5061299;28;20118;-93
2022/07/05 11:33:28;;;;;;;0.82;0.40;;;;;;;;;;5061143;28;20049;-92
2022/07/05 11:35:56;;;;;;;0.85;0.30;;;;;;;;;;5065874;28;20049;-94
2022/07/05 11:38:23;;;;;;;3.10;0.38;;;;;;;;;;5057194;28;20115;-95
2022/07/05 11:41:11;;;;;;;1.15;0.40;;;;;;;;;;5057026;28;20409;-93
2022/07/05 11:43:38;;;;;;;3.42;0.45;;;;;;;;;;5057367;28;20652;-93
2022/07/05 11:46:06;;;;;;;0.73;0.38;;;;;;;;;;5055287;28;20425;-95
2022/07/05 11:48:33;;;;;;;2.03;0.47;;;;;;;;;;5055704;28;20505;-93
2022/07/05 11:51:12;;;;;;;1.52;0.50;;;;;;;;;;5058291;28;20072;-90
2022/07/05 11:53:41;;;;;;;1.05;0.30;;;;;;;;;;5056167;28;20064;-94
2022/07/05 11:56:28;;;;;;;2.90;0.43;;;;;;;;;;5056334;28;20527;-94
2022/07/05 11:58:55;;;;;;;1.20;0.45;;;;;;;;;;5055072;28;20068;-93
2022/07/05 12:01:23;;;;;;;1.77;0.52;;;;;;;;;;5055740;28;20084;-91
2022/07/05 12:03:55;;;;;;;0.63;0.30;;;;;;;;;;5055733;28;20501;-94
2022/07/05 12:06:24;;;;;;;0.93;0.33;;;;;;;;;;5056555;28;20402;-96
2022/07/05 12:09:04;;;;;;;3.65;0.60;;;;;;;;;;5057292;28;20303;-92
2022/07/05 12:14:21;;;;;;;0.95;0.40;;;;;;;;;;5055678;28;20080;-92
2022/07/05 12:16:49;;;;;;;1.90;0.50;;;;;;;;;;5053946;28;20075;-95
2022/07/05 12:19:27;;;;;;;2.20;0.45;;;;;;;;;;5056086;28;20093;-95
2022/07/05 12:21:54;;;;;;;2.83;0.55;;;;;;;;;;5054963;28;20068;-93
2022/07/05 12:24:23;;;;;;;0.52;0.32;;;;;;;;;;5055109;28;20076;-91
2022/07/05 12:26:51;;;;;;;1.20;0.50;;;;;;;;;;5057557;28;20052;-91
2022/07/05 12:29:18;;;;;;;2.80;0.80;;;;;;;;;;5056272;28;20053;-92
2022/07/05 12:31:59;;;;;;;3.38;0.50;;;;;;;;;;5049629;28;20632;-91
2022/07/05 12:34:30;;;;;;;2.83;0.50;;;;;;;;;;5056222;28;20128;-95
2022/07/05 12:36:58;;;;;;;1.20;0.50;;;;;;;;;;5056381;28;20072;-93
2022/07/05 12:39:25;;;;;;;0.90;0.30;;;;;;;;;;5055168;28;20496;-92
2022/07/05 12:41:53;;;;;;;2.17;0.50;;;;;;;;;;5056169;28;20065;-93
2022/07/05 12:44:21;;;;;;;0.57;0.50;;;;;;;;;;5054745;28;20076;-95
2022/07/05 12:46:50;;;;;;;5.25;0.70;;;;;;;;;;5054999;28;20052;-94
2022/07/05 12:49:18;;;;;;;0.88;0.38;;;;;;;;;;5056348;28;20053;-94
2022/07/05 12:51:46;;;;;;;0.80;0.30;;;;;;;;;;5055472;28;20132;-96
2022/07/05 12:59:59;;;;;;;2.28;0.57;;;;;;;;;;5048140;28;20513;-92
2022/07/05 13:02:49;;;;;;;0.98;0.32;;;;;;;;;;5055855;28;20055;-96
2022/07/05 13:05:24;;;;;;;0.60;0.60;;;;;;;;;;5025567;28;20060;-93
2022/07/05 13:07:54;;;;;;;0.40;0.40;;;;;;;;;;5057058;28;20048;-94
2022/07/05 13:10:23;;;;;;;2.42;0.32;;;;;;;;;;5056703;28;20461;-93
2022/07/05 13:12:51;;;;;;;1.10;0.35;;;;;;;;;;5057193;28;20049;-93
2022/07/05 13:15:18;;;;;;;1.73;0.30;;;;;;;;;;5055556;28;20068;-93
2022/07/05 13:17:46;;;;;;;1.95;0.50;;;;;;;;;;5056456;28;20140;-96
2022/07/05 13:20:17;;;;;;;0.25;0.25;;;;;;;;;;5059984;28;20095;-95
2022/07/05 13:22:45;;;;;;;2.50;0.57;;;;;;;;;;5047007;28;20060;-95
2022/07/05 13:25:12;;;;;;;3.92;0.60;;;;;;;;;;5054334;28;20097;-93
2022/07/05 13:27:40;;;;;;;2.67;0.52;;;;;;;;;;5059813;28;20061;-95
2022/07/05 13:30:11;;;;;;;0.38;0.32;;;;;;;;;;5060621;28;20104;-96
2022/07/05 13:32:45;;;;;;;0.75;0.43;;;;;;;;;;5051279;28;20474;-94
2022/07/05 13:35:13;;;;;;;0.40;0.40;;;;;;;;;;5059387;28;20425;-96
2022/07/05 13:37:40;;;;;;;4.28;0.52;;;;;;;;;;5057434;28;20116;-96
2022/07/05 13:40:09;;;;;;;2.67;0.43;;;;;;;;;;5056203;28;20110;-96
2022/07/05 13:42:44;;;;;;;2.30;0.50;;;;;;;;;;5057303;28;20386;-96
2022/07/05 13:45:13;;;;;;;1.63;0.50;;;;;;;;;;5067068;22;20077;-84
2022/07/05 13:47:40;;;;;;;1.05;0.40;;;;;;;;;;5055557;28;20123;-84
2022/07/05 13:53:11;;;;;;;1.30;0.40;;;;;;;;;;4994041;28;20054;-84
2022/07/05 13:55:39;;;;;;;1.58;0.40;;;;;;;;;;5044178;28;20410;-84
2022/07/05 13:58:06;;;;;;;1.77;0.55;;;;;;;;;;5055238;28;20072;-84
2022/07/05 14:00:33;;;;;;;2.15;0.50;;;;;;;;;;5054351;28;20063;-84
2022/07/05 14:03:00;;;;;;;1.75;0.40;;;;;;;;;;5054687;28;20049;-86
2022/07/05 14:05:32;;;;;;;0.50;0.40;;;;;;;;;;5054269;28;20049;-85
2022/07/05 14:07:59;;;;;;;3.70;0.50;;;;;;;;;;5054669;28;20414;-84
2022/07/05 14:10:27;;;;;;;6.07;0.77;;;;;;;;;;5054957;28;20076;-84
2022/07/05 14:12:54;;;;;;;1.70;0.40;;;;;;;;;;5054831;28;20056;-84
2022/07/05 14:15:21;;;;;;;2.13;0.50;;;;;;;;;;5054887;28;20045;-84
2022/07/05 14:17:48;;;;;;;0.30;0.25;;;;;;;;;;5053998;28;20110;-85
2022/07/05 14:20:15;;;;;;;4.07;0.70;;;;;;;;;;5054317;28;20048;-85
2022/07/05 14:22:42;;;;;;;3.17;0.50;;;;;;;;;;5057183;28;20065;-85
2022/07/05 14:25:09;;;;;;;1.50;0.70;;;;;;;;;;5055254;28;20045;-85
2022/07/05 14:27:37;;;;;;;2.47;0.40;;;;;;;;;;5054017;28;20100;-84
2022/07/05 14:30:05;;;;;;;1.10;0.50;;;;;;;;;;5054036;28;20075;-84
2022/07/05 14:32:32;;;;;;;0.50;0.50;;;;;;;;;;5056710;28;20056;-84
2022/07/05 14:34:59;;;;;;;2.88;0.40;;;;;;;;;;5057256;28;20053;-83
2022/07/05 14:37:27;;;;;;;3.25;0.60;;;;;;;;;;5054077;28;20465;-84
2022/07/05 14:39:54;;;;;;;3.05;0.60;;;;;;;;;;5054828;28;20049;-83
2022/07/05 14:42:21;;;;;;;3.42;0.68;;;;;;;;;;5058239;28;20041;-86
2022/07/05 14:44:48;;;;;;;0.63;0.55;;;;;;;;;;5058402;28;20075;-84
2022/07/05 14:47:15;;;;;;;3.53;0.57;;;;;;;;;;5061453;28;20079;-84
2022/07/05 14:49:42;;;;;;;2.00;0.60;;;;;;;;;;5061914;28;20456;-83
2022/07/05 14:52:09;;;;;;;0.98;0.63;;;;;;;;;;5061189;28;20087;-84
2022/07/05 14:54:37;;;;;;;0.73;0.55;;;;;;;;;;5080489;28;20536;-83
2022/07/05 14:57:04;;;;;;;0.50;0.40;;;;;;;;;;5061227;28;20064;-84
2022/07/05 14:59:31;;;;;;;0.77;0.45;;;;;;;;;;5077287;28;20044;-83
2022/07/05 15:01:58;;;;;;;1.10;0.60;;;;;;;;;;5058900;28;20045;-83
2022/07/05 15:04:26;;;;;;;0.52;0.50;;;;;;;;;;5059823;28;20056;-83
2022/07/05 15:06:53;;;;;;;0.95;0.57;;;;;;;;;;5058804;28;20541;-84
2022/07/05 15:09:21;;;;;;;1.17;1.00;;;;;;;;;;5059282;28;20071;-83
2022/07/05 15:11:48;;;;;;;2.05;0.60;;;;;;;;;;5059908;28;20068;-83